Time,TemperatureF,DewpointF,PressureIn,WindDirection,WindDirectionDegrees,WindSpeedMPH,WindSpeedGustMPH,Humidity,HourlyPrecipIn,Conditions,Clouds,dailyrainin,SoftwareType,DateUTC
2013-04-01 00:00:00,65.0,62.0,29.92,NE,53,3.0,6.0,90,0.00,,SKC,0.05,VWS V14.01,2013-04-01 05:00:00,
2013-04-01 00:02:00,66.3,62.3,29.92,NE,53,0.0,4.0,87,0.00,,SKC,0.00,VWS V14.01,2013-04-01 05:02:00,
2013-04-01 00:07:00,66.3,62.0,29.92,NE,53,0.0,0.0,86,0.00,,SKC,0.00,VWS V14.01,2013-04-01 05:07:00,
2013-04-01 00:10:00,66.3,62.3,29.92,NE,53,0.0,4.0,87,0.00,,SKC,0.00,VWS V14.01,2013-04-01 05:10:00,
2013-04-01 00:12:00,66.2,61.9,29.92,NE,53,0.0,0.0,86,0.00,,SKC,0.00,VWS V14.01,2013-04-01 05:12:00,
2013-04-01 00:17:00,66.1,61.8,29.92,NE,53,0.0,0.0,86,0.00,,SKC,0.00,VWS V14.01,2013-04-01 05:17:00,
2013-04-01 00:20:00,66.1,61.8,29.92,NE,53,0.0,0.0,86,0.00,,SKC,0.00,VWS V14.01,2013-04-01 05:20:00,
2013-04-01 00:22:00,66.0,62.0,29.92,NE,53,0.0,0.0,87,0.00,,SKC,0.00,VWS V14.01,2013-04-01 05:22:00,
2013-04-01 00:27:00,65.9,61.9,29.93,NE,53,0.0,0.0,87,0.00,,SKC,0.00,VWS V14.01,2013-04-01 05:27:00,
2013-04-01 00:30:00,65.9,61.9,29.92,NE,53,0.0,0.0,87,0.00,,SKC,0.00,VWS V14.01,2013-04-01 05:30:00,
2013-04-01 00:32:00,65.9,62.2,29.93,NE,53,0.0,0.0,88,0.00,,SKC,0.00,VWS V14.01,2013-04-01 05:32:00,
2013-04-01 00:37:00,65.8,62.2,29.93,NE,53,0.0,0.0,88,0.00,,SKC,0.00,VWS V14.01,2013-04-01 05:37:00,
2013-04-01 00:40:00,65.8,62.2,29.93,NE,53,0.0,0.0,88,0.00,,SKC,0.00,VWS V14.01,2013-04-01 05:40:00,
2013-04-01 00:42:00,65.7,62.0,29.93,NE,53,0.0,0.0,88,0.00,,SKC,0.00,VWS V14.01,2013-04-01 05:42:00,
2013-04-01 00:47:00,65.6,62.0,29.93,NE,53,0.0,0.0,88,0.00,,SKC,0.00,VWS V14.01,2013-04-01 05:47:00,
2013-04-01 00:50:00,65.6,62.0,29.93,NE,53,0.0,0.0,88,0.00,,SKC,0.00,VWS V14.01,2013-04-01 05:50:00,
2013-04-01 00:52:00,65.6,62.3,29.93,NE,53,0.0,0.0,89,0.00,,SKC,0.00,VWS V14.01,2013-04-01 05:52:00,
2013-04-01 00:57:00,65.4,62.1,29.93,NE,53,0.0,0.0,89,0.00,,SKC,0.00,VWS V14.01,2013-04-01 05:57:00,
2013-04-01 01:00:00,65.4,62.1,29.93,NE,53,0.0,0.0,89,0.00,,SKC,0.00,VWS V14.01,2013-04-01 06:00:00,
2013-04-01 01:02:00,65.3,62.0,29.93,NE,53,0.0,0.0,89,0.00,,SKC,0.00,VWS V14.01,2013-04-01 06:02:00,
2013-04-01 01:07:00,65.0,61.4,29.93,NE,53,0.0,0.0,88,0.00,,SKC,0.00,VWS V14.01,2013-04-01 06:07:00,
2013-04-01 01:10:00,65.1,61.5,29.93,NE,53,0.0,0.0,88,0.00,,SKC,0.00,VWS V14.01,2013-04-01 06:10:00,
2013-04-01 01:12:00,64.8,61.2,29.93,NE,53,0.0,0.0,88,0.00,,SKC,0.00,VWS V14.01,2013-04-01 06:12:00,
2013-04-01 01:17:00,64.6,61.3,29.93,NE,53,0.0,0.0,89,0.00,,SKC,0.00,VWS V14.01,2013-04-01 06:17:00,
2013-04-01 01:20:00,64.6,61.3,29.93,NE,53,0.0,0.0,89,0.00,,SKC,0.00,VWS V14.01,2013-04-01 06:20:00,
2013-04-01 01:22:00,64.4,61.1,29.93,NE,53,0.0,0.0,89,0.00,,SKC,0.00,VWS V14.01,2013-04-01 06:22:00,
2013-04-01 01:27:00,64.2,60.9,29.94,NE,53,0.0,0.0,89,0.00,,SKC,0.00,VWS V14.01,2013-04-01 06:27:00,
2013-04-01 01:30:00,64.3,61.0,29.93,NE,53,0.0,0.0,89,0.00,,SKC,0.00,VWS V14.01,2013-04-01 06:30:00,
2013-04-01 01:33:00,64.2,61.2,29.93,NE,53,0.0,0.0,90,0.00,,SKC,0.00,VWS V14.01,2013-04-01 06:33:00,
2013-04-01 01:38:00,64.2,61.5,29.94,NE,53,0.0,0.0,91,0.00,,SKC,0.00,VWS V14.01,2013-04-01 06:38:00,
2013-04-01 01:40:00,64.2,61.2,29.94,NE,53,0.0,0.0,90,0.00,,SKC,0.00,VWS V14.01,2013-04-01 06:40:00,
2013-04-01 01:43:00,64.3,61.6,29.94,NE,53,0.0,0.0,91,0.00,,SKC,0.00,VWS V14.01,2013-04-01 06:43:00,
2013-04-01 01:48:00,64.4,62.0,29.94,NE,53,0.0,0.0,92,0.00,,SKC,0.00,VWS V14.01,2013-04-01 06:48:00,
2013-04-01 01:50:00,64.3,61.6,29.94,NE,53,0.0,0.0,91,0.00,,SKC,0.00,VWS V14.01,2013-04-01 06:50:00,
2013-04-01 01:53:00,64.5,62.1,29.94,NE,53,0.0,0.0,92,0.00,,SKC,0.00,VWS V14.01,2013-04-01 06:53:00,
2013-04-01 01:58:00,64.6,62.2,29.94,NE,53,0.0,0.0,92,0.00,,SKC,0.00,VWS V14.01,2013-04-01 06:58:00,
2013-04-01 02:00:00,64.6,62.2,29.94,NE,53,0.0,0.0,92,0.00,,SKC,0.00,VWS V14.01,2013-04-01 07:00:00,
2013-04-01 02:03:00,64.6,62.2,29.95,NE,53,0.0,0.0,92,0.00,,SKC,0.00,VWS V14.01,2013-04-01 07:03:00,
2013-04-01 02:08:00,64.6,62.2,29.94,NE,53,0.0,0.0,92,0.00,,SKC,0.00,VWS V14.01,2013-04-01 07:08:00,
2013-04-01 02:10:00,64.6,62.2,29.94,NE,53,0.0,0.0,92,0.00,,SKC,0.00,VWS V14.01,2013-04-01 07:10:00,
2013-04-01 02:13:00,64.5,61.8,29.94,NE,53,0.0,0.0,91,0.00,,SKC,0.00,VWS V14.01,2013-04-01 07:13:00,
2013-04-01 02:18:00,64.4,61.7,29.94,NE,53,0.0,0.0,91,0.00,,SKC,0.00,VWS V14.01,2013-04-01 07:18:00,
2013-04-01 02:20:00,64.4,61.7,29.94,NE,53,0.0,0.0,91,0.00,,SKC,0.00,VWS V14.01,2013-04-01 07:20:00,
2013-04-01 02:23:00,64.3,61.9,29.94,NE,53,0.0,0.0,92,0.00,,SKC,0.00,VWS V14.01,2013-04-01 07:23:00,
2013-04-01 02:28:00,64.2,61.5,29.94,NE,53,0.0,0.0,91,0.00,,SKC,0.00,VWS V14.01,2013-04-01 07:28:00,
2013-04-01 02:30:00,64.2,61.5,29.94,NE,53,0.0,0.0,91,0.00,,SKC,0.00,VWS V14.01,2013-04-01 07:30:00,
2013-04-01 02:33:00,64.2,61.8,29.94,NE,53,0.0,0.0,92,0.00,,SKC,0.00,VWS V14.01,2013-04-01 07:33:00,
2013-04-01 02:40:00,64.2,61.8,29.95,NE,53,0.0,0.0,92,0.00,,SKC,0.00,VWS V14.01,2013-04-01 07:40:00,
2013-04-01 02:48:00,64.3,61.9,29.95,NE,53,0.0,0.0,92,0.00,,SKC,0.00,VWS V14.01,2013-04-01 07:48:00,
2013-04-01 02:50:00,64.4,62.0,29.95,NE,53,0.0,0.0,92,0.00,,SKC,0.00,VWS V14.01,2013-04-01 07:50:00,
2013-04-01 02:53:00,64.3,61.9,29.95,NE,53,0.0,0.0,92,0.00,,SKC,0.00,VWS V14.01,2013-04-01 07:53:00,
2013-04-01 02:58:00,64.3,61.9,29.95,NE,53,0.0,0.0,92,0.00,,SKC,0.00,VWS V14.01,2013-04-01 07:58:00,
2013-04-01 03:00:00,64.3,61.9,29.95,NE,53,0.0,0.0,92,0.00,,SKC,0.00,VWS V14.01,2013-04-01 08:00:00,
2013-04-01 03:03:00,64.4,62.0,29.95,NE,53,0.0,0.0,92,0.00,,SKC,0.00,VWS V14.01,2013-04-01 08:03:00,
2013-04-01 03:08:00,64.4,62.3,29.95,NE,53,0.0,0.0,93,0.00,,SKC,0.00,VWS V14.01,2013-04-01 08:08:00,
2013-04-01 03:10:00,64.4,62.0,29.95,NE,53,0.0,0.0,92,0.00,,SKC,0.00,VWS V14.01,2013-04-01 08:10:00,
2013-04-01 03:13:00,64.5,62.4,29.95,NE,53,0.0,0.0,93,0.00,,SKC,0.00,VWS V14.01,2013-04-01 08:13:00,
2013-04-01 03:18:00,64.6,62.5,29.94,NE,53,0.0,0.0,93,0.00,,SKC,0.00,VWS V14.01,2013-04-01 08:18:00,
2013-04-01 03:20:00,64.5,62.4,29.95,NE,53,0.0,0.0,93,0.00,,SKC,0.00,VWS V14.01,2013-04-01 08:20:00,
2013-04-01 03:23:00,64.7,62.6,29.94,NE,53,0.0,0.0,93,0.00,,SKC,0.00,VWS V14.01,2013-04-01 08:23:00,
2013-04-01 03:28:00,64.8,62.7,29.94,NE,53,0.0,0.0,93,0.00,,SKC,0.00,VWS V14.01,2013-04-01 08:28:00,
2013-04-01 03:30:00,64.7,62.6,29.94,NE,53,0.0,0.0,93,0.00,,SKC,0.00,VWS V14.01,2013-04-01 08:30:00,
2013-04-01 03:33:00,64.9,62.8,29.95,NE,53,0.0,0.0,93,0.00,,SKC,0.00,VWS V14.01,2013-04-01 08:33:00,
2013-04-01 03:38:00,65.0,62.9,29.94,NE,53,0.0,0.0,93,0.00,,SKC,0.00,VWS V14.01,2013-04-01 08:38:00,
2013-04-01 03:40:00,64.9,62.8,29.94,NE,53,0.0,0.0,93,0.00,,SKC,0.00,VWS V14.01,2013-04-01 08:40:00,
2013-04-01 03:43:00,65.1,63.0,29.94,NE,53,0.0,0.0,93,0.00,,SKC,0.00,VWS V14.01,2013-04-01 08:43:00,
2013-04-01 03:48:00,65.2,63.1,29.94,NE,53,0.0,0.0,93,0.00,,SKC,0.00,VWS V14.01,2013-04-01 08:48:00,
2013-04-01 03:50:00,65.2,63.1,29.94,NE,53,0.0,0.0,93,0.00,,SKC,0.00,VWS V14.01,2013-04-01 08:50:00,
2013-04-01 03:53:00,65.2,63.1,29.94,NE,53,0.0,0.0,93,0.00,,SKC,0.00,VWS V14.01,2013-04-01 08:53:00,
2013-04-01 03:58:00,65.1,63.0,29.94,NE,53,0.0,1.0,93,0.00,,SKC,0.00,VWS V14.01,2013-04-01 08:58:00,
2013-04-01 04:00:00,65.2,63.1,29.94,NE,53,0.0,0.0,93,0.00,,SKC,0.00,VWS V14.01,2013-04-01 09:00:00,
2013-04-01 04:08:00,65.1,63.0,29.94,NE,53,0.0,0.0,93,0.00,,SKC,0.00,VWS V14.01,2013-04-01 09:08:00,
2013-04-01 04:10:00,65.1,63.0,29.94,NE,53,0.0,1.0,93,0.00,,SKC,0.00,VWS V14.01,2013-04-01 09:10:00,
2013-04-01 04:13:00,65.1,63.0,29.94,NE,53,0.0,0.0,93,0.00,,SKC,0.00,VWS V14.01,2013-04-01 09:13:00,
2013-04-01 04:18:00,65.0,62.6,29.94,NE,53,0.0,0.0,92,0.00,,SKC,0.00,VWS V14.01,2013-04-01 09:18:00,
2013-04-01 04:20:00,65.0,62.6,29.94,NE,53,0.0,1.0,92,0.00,,SKC,0.00,VWS V14.01,2013-04-01 09:20:00,
2013-04-01 04:23:00,64.8,62.4,29.94,NE,53,0.0,0.0,92,0.00,,SKC,0.00,VWS V14.01,2013-04-01 09:23:00,
2013-04-01 04:28:00,64.7,62.3,29.93,NE,53,0.0,0.0,92,0.00,,SKC,0.00,VWS V14.01,2013-04-01 09:28:00,
2013-04-01 04:30:00,64.7,62.3,29.93,NE,53,0.0,2.0,92,0.00,,SKC,0.00,VWS V14.01,2013-04-01 09:30:00,
2013-04-01 04:33:00,64.5,62.1,29.94,NE,53,0.0,0.0,92,0.00,,SKC,0.00,VWS V14.01,2013-04-01 09:33:00,
2013-04-01 04:38:00,64.3,61.9,29.94,NE,53,0.0,0.0,92,0.00,,SKC,0.00,VWS V14.01,2013-04-01 09:38:00,
2013-04-01 04:40:00,64.4,62.0,29.94,NE,53,0.0,0.0,92,0.00,,SKC,0.00,VWS V14.01,2013-04-01 09:40:00,
2013-04-01 04:43:00,64.3,61.9,29.94,NE,53,0.0,0.0,92,0.00,,SKC,0.00,VWS V14.01,2013-04-01 09:43:00,
2013-04-01 04:48:00,64.2,61.8,29.94,NE,53,0.0,0.0,92,0.00,,SKC,0.00,VWS V14.01,2013-04-01 09:48:00,
2013-04-01 04:50:00,64.2,61.8,29.94,NE,53,0.0,0.0,92,0.00,,SKC,0.00,VWS V14.01,2013-04-01 09:50:00,
2013-04-01 04:53:00,64.1,61.7,29.94,NE,53,0.0,0.0,92,0.00,,SKC,0.00,VWS V14.01,2013-04-01 09:53:00,
2013-04-01 04:58:00,64.1,61.7,29.94,NE,53,0.0,0.0,92,0.00,,SKC,0.00,VWS V14.01,2013-04-01 09:58:00,
2013-04-01 05:00:00,64.1,61.7,29.94,NE,53,0.0,0.0,92,0.00,,SKC,0.00,VWS V14.01,2013-04-01 10:00:00,
2013-04-01 05:03:00,64.0,61.9,29.94,NE,53,0.0,0.0,93,0.00,,SKC,0.00,VWS V14.01,2013-04-01 10:03:00,
2013-04-01 05:10:00,64.0,61.9,29.94,NE,53,0.0,3.0,93,0.00,,SKC,0.00,VWS V14.01,2013-04-01 10:10:00,
2013-04-01 05:13:00,64.0,61.9,29.95,NE,53,0.0,0.0,93,0.00,,SKC,0.00,VWS V14.01,2013-04-01 10:13:00,
2013-04-01 05:18:00,64.0,61.9,29.94,NE,53,0.0,0.0,93,0.00,,SKC,0.00,VWS V14.01,2013-04-01 10:18:00,
2013-04-01 05:20:00,64.0,61.9,29.94,NE,53,0.0,0.0,93,0.00,,SKC,0.00,VWS V14.01,2013-04-01 10:20:00,
2013-04-01 05:23:00,64.0,61.9,29.94,NE,53,0.0,0.0,93,0.00,,SKC,0.00,VWS V14.01,2013-04-01 10:23:00,
2013-04-01 05:28:00,64.0,61.9,29.95,NE,53,0.0,0.0,93,0.00,,SKC,0.00,VWS V14.01,2013-04-01 10:28:00,
2013-04-01 05:30:00,64.0,61.9,29.95,NE,53,0.0,0.0,93,0.00,,SKC,0.00,VWS V14.01,2013-04-01 10:30:00,
2013-04-01 05:33:00,64.1,62.0,29.95,NE,53,0.0,0.0,93,0.00,,SKC,0.00,VWS V14.01,2013-04-01 10:33:00,
2013-04-01 05:38:00,64.2,62.1,29.95,NE,53,0.0,0.0,93,0.00,,SKC,0.00,VWS V14.01,2013-04-01 10:38:00,
2013-04-01 05:40:00,64.1,62.0,29.95,NE,53,0.0,0.0,93,0.00,,SKC,0.00,VWS V14.01,2013-04-01 10:40:00,
2013-04-01 05:43:00,64.3,62.2,29.95,NE,53,0.0,1.0,93,0.00,,SKC,0.00,VWS V14.01,2013-04-01 10:43:00,
2013-04-01 05:48:00,64.3,62.2,29.95,NE,53,0.0,3.0,93,0.00,,SKC,0.00,VWS V14.01,2013-04-01 10:48:00,
2013-04-01 05:50:00,64.3,62.2,29.95,NE,53,2.0,2.0,93,0.00,,SKC,0.00,VWS V14.01,2013-04-01 10:50:00,
2013-04-01 05:53:00,64.4,62.3,29.95,NE,53,0.0,3.0,93,0.00,,SKC,0.00,VWS V14.01,2013-04-01 10:53:00,
2013-04-01 05:58:00,64.4,62.3,29.95,NE,53,0.0,0.0,93,0.00,,SKC,0.00,VWS V14.01,2013-04-01 10:58:00,
2013-04-01 06:00:00,64.4,62.3,29.96,NE,53,0.0,3.0,93,0.00,,SKC,0.00,VWS V14.01,2013-04-01 11:00:00,
2013-04-01 06:03:00,64.5,62.4,29.95,NE,53,0.0,0.0,93,0.00,,SKC,0.00,VWS V14.01,2013-04-01 11:03:00,
2013-04-01 06:08:00,64.5,62.1,29.96,NE,53,0.0,1.0,92,0.00,,SKC,0.00,VWS V14.01,2013-04-01 11:08:00,
2013-04-01 06:10:00,64.5,62.4,29.96,NE,53,0.0,3.0,93,0.00,,SKC,0.00,VWS V14.01,2013-04-01 11:10:00,
2013-04-01 06:13:00,64.5,62.1,29.96,NE,53,0.0,1.0,92,0.00,,SKC,0.00,VWS V14.01,2013-04-01 11:13:00,
2013-04-01 06:18:00,64.6,62.2,29.96,NE,53,0.0,3.0,92,0.00,,SKC,0.00,VWS V14.01,2013-04-01 11:18:00,
2013-04-01 06:20:00,64.5,62.1,29.96,NE,53,2.0,3.0,92,0.00,,SKC,0.00,VWS V14.01,2013-04-01 11:20:00,
2013-04-01 06:23:00,64.6,61.9,29.97,NE,53,0.0,6.0,91,0.00,,SKC,0.00,VWS V14.01,2013-04-01 11:23:00,
2013-04-01 06:28:00,64.6,61.9,29.97,NE,53,0.0,3.0,91,0.00,,SKC,0.00,VWS V14.01,2013-04-01 11:28:00,
2013-04-01 06:30:00,64.6,61.9,29.97,NE,53,3.0,6.0,91,0.00,,SKC,0.00,VWS V14.01,2013-04-01 11:30:00,
2013-04-01 06:33:00,64.7,62.0,29.97,NE,53,0.0,6.0,91,0.00,,SKC,0.00,VWS V14.01,2013-04-01 11:33:00,
2013-04-01 06:38:00,64.7,62.0,29.97,NE,53,0.0,5.0,91,0.00,,SKC,0.00,VWS V14.01,2013-04-01 11:38:00,
2013-04-01 06:40:00,64.7,62.0,29.97,NE,53,4.0,6.0,91,0.00,,SKC,0.00,VWS V14.01,2013-04-01 11:40:00,
2013-04-01 06:43:00,64.7,62.0,29.97,NE,53,3.0,8.0,91,0.00,,SKC,0.00,VWS V14.01,2013-04-01 11:43:00,
2013-04-01 06:48:00,64.6,61.9,29.97,NE,53,0.0,7.0,91,0.00,,SKC,0.00,VWS V14.01,2013-04-01 11:48:00,
2013-04-01 06:50:00,64.6,61.9,29.97,NE,53,0.0,8.0,91,0.00,,SKC,0.00,VWS V14.01,2013-04-01 11:50:00,
2013-04-01 06:53:00,64.5,61.8,29.97,NE,53,0.0,7.0,91,0.00,,SKC,0.00,VWS V14.01,2013-04-01 11:53:00,
2013-04-01 06:58:00,64.5,61.8,29.98,NE,53,1.0,6.0,91,0.00,,SKC,0.00,VWS V14.01,2013-04-01 11:58:00,
2013-04-01 07:00:00,64.5,61.8,29.97,NE,53,2.0,7.0,91,0.00,,SKC,0.00,VWS V14.01,2013-04-01 12:00:00,
2013-04-01 07:03:00,64.5,61.8,29.98,NE,53,2.0,6.0,91,0.00,,SKC,0.00,VWS V14.01,2013-04-01 12:03:00,
2013-04-01 07:08:00,64.5,61.8,29.98,NE,53,0.0,4.0,91,0.00,,SKC,0.00,VWS V14.01,2013-04-01 12:08:00,
2013-04-01 07:10:00,64.5,61.8,29.98,NE,53,0.0,6.0,91,0.00,,SKC,0.00,VWS V14.01,2013-04-01 12:10:00,
2013-04-01 07:13:00,64.4,61.7,29.98,NE,53,0.0,5.0,91,0.00,,SKC,0.00,VWS V14.01,2013-04-01 12:13:00,
2013-04-01 07:18:00,64.4,61.7,29.98,NE,53,1.0,4.0,91,0.00,,SKC,0.00,VWS V14.01,2013-04-01 12:18:00,
2013-04-01 07:20:00,64.4,61.7,29.98,NE,53,0.0,5.0,91,0.00,,SKC,0.00,VWS V14.01,2013-04-01 12:20:00,
2013-04-01 07:23:00,64.3,61.6,29.98,NE,53,1.0,6.0,91,0.00,,SKC,0.00,VWS V14.01,2013-04-01 12:23:00,
2013-04-01 07:28:00,64.3,61.9,29.98,NE,53,0.0,0.0,92,0.00,,SKC,0.00,VWS V14.01,2013-04-01 12:28:00,
2013-04-01 07:30:00,64.3,61.6,29.98,NE,53,0.0,6.0,91,0.00,,SKC,0.00,VWS V14.01,2013-04-01 12:30:00,
2013-04-01 07:33:00,64.3,61.9,29.99,NE,53,0.0,0.0,92,0.00,,SKC,0.00,VWS V14.01,2013-04-01 12:33:00,
2013-04-01 07:38:00,64.3,61.9,29.99,NE,53,0.0,2.0,92,0.00,,SKC,0.00,VWS V14.01,2013-04-01 12:38:00,
2013-04-01 07:40:00,64.3,61.9,29.98,NE,53,2.0,2.0,92,0.00,,SKC,0.00,VWS V14.01,2013-04-01 12:40:00,
2013-04-01 07:43:00,64.3,61.9,29.99,NE,53,0.0,2.0,92,0.00,,SKC,0.00,VWS V14.01,2013-04-01 12:43:00,
2013-04-01 07:48:00,64.3,61.9,29.99,NE,53,0.0,2.0,92,0.00,,SKC,0.00,VWS V14.01,2013-04-01 12:48:00,
2013-04-01 07:50:00,64.3,61.9,29.99,NE,53,1.0,4.0,92,0.00,,SKC,0.00,VWS V14.01,2013-04-01 12:50:00,
2013-04-01 07:53:00,64.3,61.9,29.99,NE,53,0.0,2.0,92,0.00,,SKC,0.00,VWS V14.01,2013-04-01 12:53:00,
2013-04-01 07:58:00,64.3,61.9,29.99,NE,53,0.0,0.0,92,0.00,,SKC,0.00,VWS V14.01,2013-04-01 12:58:00,
2013-04-01 08:00:00,64.3,61.9,29.99,NE,53,0.0,2.0,92,0.00,,SKC,0.00,VWS V14.01,2013-04-01 13:00:00,
2013-04-01 08:03:00,64.3,61.9,30.00,NE,53,0.0,6.0,92,0.00,,SKC,0.00,VWS V14.01,2013-04-01 13:03:00,
2013-04-01 08:08:00,64.3,61.9,30.00,NE,53,0.0,0.0,92,0.00,,SKC,0.00,VWS V14.01,2013-04-01 13:08:00,
2013-04-01 08:10:00,64.3,61.9,30.00,NE,53,0.0,6.0,92,0.00,,SKC,0.00,VWS V14.01,2013-04-01 13:10:00,
2013-04-01 08:13:00,64.3,61.9,30.00,NE,53,0.0,0.0,92,0.00,,SKC,0.00,VWS V14.01,2013-04-01 13:13:00,
2013-04-01 08:18:00,64.3,61.9,30.00,NE,55,0.0,0.0,92,0.00,,SKC,0.00,VWS V14.01,2013-04-01 13:18:00,
2013-04-01 08:20:00,64.3,61.9,30.00,NE,53,0.0,0.0,92,0.00,,SKC,0.00,VWS V14.01,2013-04-01 13:20:00,
2013-04-01 08:23:00,64.4,62.0,30.01,NE,55,0.0,0.0,92,0.00,,SKC,0.00,VWS V14.01,2013-04-01 13:23:00,
2013-04-01 08:28:00,64.4,62.0,30.01,NE,55,0.0,0.0,92,0.00,,SKC,0.00,VWS V14.01,2013-04-01 13:28:00,
2013-04-01 08:30:00,64.4,62.0,30.01,NE,55,0.0,1.0,92,0.00,,SKC,0.00,VWS V14.01,2013-04-01 13:30:00,
2013-04-01 08:33:00,64.4,62.0,30.01,NE,55,0.0,0.0,92,0.00,,SKC,0.00,VWS V14.01,2013-04-01 13:33:00,
2013-04-01 08:38:00,64.5,62.1,30.00,NE,55,0.0,0.0,92,0.00,,SKC,0.00,VWS V14.01,2013-04-01 13:38:00,
2013-04-01 08:40:00,64.5,62.1,30.01,NE,55,0.0,0.0,92,0.00,,SKC,0.00,VWS V14.01,2013-04-01 13:40:00,
2013-04-01 08:43:00,64.6,62.2,30.01,NE,55,0.0,0.0,92,0.00,,SKC,0.00,VWS V14.01,2013-04-01 13:43:00,
2013-04-01 08:48:00,64.7,62.3,30.01,NE,55,0.0,0.0,92,0.00,,SKC,0.00,VWS V14.01,2013-04-01 13:48:00,
2013-04-01 08:50:00,64.7,62.3,30.01,NE,55,0.0,0.0,92,0.00,,SKC,0.00,VWS V14.01,2013-04-01 13:50:00,
2013-04-01 08:53:00,64.9,62.5,30.01,NE,55,0.0,3.0,92,0.00,,SKC,0.00,VWS V14.01,2013-04-01 13:53:00,
2013-04-01 08:58:00,65.1,62.7,30.00,NE,55,0.0,1.0,92,0.00,,SKC,0.00,VWS V14.01,2013-04-01 13:58:00,
2013-04-01 09:00:00,65.0,62.6,30.01,NE,55,0.0,3.0,92,0.00,,SKC,0.00,VWS V14.01,2013-04-01 14:00:00,
2013-04-01 09:04:00,65.3,63.2,30.00,NE,55,0.0,1.0,93,0.00,,SKC,0.00,VWS V14.01,2013-04-01 14:04:00,
2013-04-01 09:09:00,65.7,63.6,30.00,NE,55,0.0,1.0,93,0.00,,SKC,0.00,VWS V14.01,2013-04-01 14:09:00,
2013-04-01 09:10:00,65.5,63.4,30.00,NE,55,0.0,1.0,93,0.00,,SKC,0.00,VWS V14.01,2013-04-01 14:10:00,
2013-04-01 09:14:00,66.1,64.0,30.00,NE,55,0.0,3.0,93,0.00,,SKC,0.00,VWS V14.01,2013-04-01 14:14:00,
2013-04-01 09:19:00,66.6,64.5,30.00,NE,55,0.0,0.0,93,0.00,,SKC,0.00,VWS V14.01,2013-04-01 14:19:00,
2013-04-01 09:20:00,66.3,64.2,30.00,NE,55,0.0,3.0,93,0.00,,SKC,0.00,VWS V14.01,2013-04-01 14:20:00,
2013-04-01 09:24:00,67.2,64.8,30.00,NE,55,0.0,3.0,92,0.00,,SKC,0.00,VWS V14.01,2013-04-01 14:24:00,
2013-04-01 09:29:00,67.8,65.1,30.00,NE,55,0.0,0.0,91,0.00,,SKC,0.00,VWS V14.01,2013-04-01 14:29:00,
2013-04-01 09:30:00,67.5,65.1,30.00,NE,55,0.0,3.0,92,0.00,,SKC,0.00,VWS V14.01,2013-04-01 14:30:00,
2013-04-01 09:34:00,68.4,65.4,30.01,NE,55,0.0,1.0,90,0.00,,SKC,0.00,VWS V14.01,2013-04-01 14:34:00,
2013-04-01 09:39:00,69.2,65.8,30.01,NE,55,4.0,4.0,89,0.00,,SKC,0.00,VWS V14.01,2013-04-01 14:39:00,
2013-04-01 09:40:00,68.8,65.8,30.01,NE,55,0.0,1.0,90,0.00,,SKC,0.00,VWS V14.01,2013-04-01 14:40:00,
2013-04-01 09:44:00,69.6,65.6,30.01,NE,55,2.0,5.0,87,0.00,,SKC,0.00,VWS V14.01,2013-04-01 14:44:00,
2013-04-01 09:49:00,69.8,65.8,30.01,NE,55,0.0,0.0,87,0.00,,SKC,0.00,VWS V14.01,2013-04-01 14:49:00,
2013-04-01 09:50:00,69.7,65.7,30.01,NE,55,0.0,5.0,87,0.00,,SKC,0.00,VWS V14.01,2013-04-01 14:50:00,
2013-04-01 09:54:00,69.9,65.9,30.01,NE,55,0.0,4.0,87,0.00,,SKC,0.00,VWS V14.01,2013-04-01 14:54:00,
2013-04-01 09:59:00,70.0,66.0,30.01,NE,55,0.0,0.0,87,0.00,,SKC,0.00,VWS V14.01,2013-04-01 14:59:00,
2013-04-01 10:00:00,70.0,65.6,30.01,NE,55,0.0,4.0,86,0.00,,SKC,0.00,VWS V14.01,2013-04-01 15:00:00,
2013-04-01 10:04:00,70.2,66.2,30.01,NE,55,0.0,0.0,87,0.00,,SKC,0.00,VWS V14.01,2013-04-01 15:04:00,
2013-04-01 10:09:00,70.5,66.1,30.01,NE,55,0.0,0.0,86,0.00,,SKC,0.00,VWS V14.01,2013-04-01 15:09:00,
2013-04-01 10:10:00,70.4,66.3,30.01,NE,55,0.0,0.0,87,0.00,,SKC,0.00,VWS V14.01,2013-04-01 15:10:00,
2013-04-01 10:14:00,70.7,66.0,30.01,NE,55,0.0,0.0,85,0.00,,SKC,0.00,VWS V14.01,2013-04-01 15:14:00,
2013-04-01 10:19:00,70.9,66.2,30.01,NE,55,0.0,0.0,85,0.00,,SKC,0.00,VWS V14.01,2013-04-01 15:19:00,
2013-04-01 10:20:00,70.8,66.4,30.01,NE,55,0.0,0.0,86,0.00,,SKC,0.00,VWS V14.01,2013-04-01 15:20:00,
2013-04-01 10:24:00,71.1,66.4,30.01,NE,55,0.0,0.0,85,0.00,,SKC,0.00,VWS V14.01,2013-04-01 15:24:00,
2013-04-01 10:29:00,71.5,66.4,30.01,NE,55,0.0,0.0,84,0.00,,SKC,0.00,VWS V14.01,2013-04-01 15:29:00,
2013-04-01 10:30:00,71.3,66.2,30.01,NE,55,0.0,0.0,84,0.00,,SKC,0.00,VWS V14.01,2013-04-01 15:30:00,
2013-04-01 10:34:00,71.9,66.8,30.01,NE,55,0.0,1.0,84,0.00,,SKC,0.00,VWS V14.01,2013-04-01 15:34:00,
2013-04-01 10:39:00,72.2,66.8,30.01,NE,55,0.0,0.0,83,0.00,,SKC,0.00,VWS V14.01,2013-04-01 15:39:00,
2013-04-01 10:40:00,72.1,66.7,30.01,NE,55,0.0,1.0,83,0.00,,SKC,0.00,VWS V14.01,2013-04-01 15:40:00,
2013-04-01 10:44:00,72.2,66.4,30.02,NE,55,0.0,1.0,82,0.00,,SKC,0.00,VWS V14.01,2013-04-01 15:44:00,
2013-04-01 10:49:00,72.4,66.6,30.01,NE,55,0.0,0.0,82,0.00,,SKC,0.00,VWS V14.01,2013-04-01 15:49:00,
2013-04-01 10:50:00,72.3,66.5,30.01,NE,55,0.0,3.0,82,0.00,,SKC,0.00,VWS V14.01,2013-04-01 15:50:00,
2013-04-01 10:54:00,72.9,66.7,30.02,NE,55,0.0,1.0,81,0.00,,SKC,0.00,VWS V14.01,2013-04-01 15:54:00,
2013-04-01 10:59:00,73.4,67.2,30.01,NE,55,0.0,0.0,81,0.00,,SKC,0.00,VWS V14.01,2013-04-01 15:59:00,
2013-04-01 11:00:00,73.1,66.9,30.02,NE,55,0.0,1.0,81,0.00,,SKC,0.00,VWS V14.01,2013-04-01 16:00:00,
2013-04-01 11:04:00,73.9,67.0,30.01,NE,55,0.0,1.0,79,0.00,,SKC,0.00,VWS V14.01,2013-04-01 16:04:00,
2013-04-01 11:09:00,74.0,67.1,30.01,NE,55,0.0,0.0,79,0.00,,SKC,0.00,VWS V14.01,2013-04-01 16:09:00,
2013-04-01 11:10:00,73.9,67.0,30.02,NE,55,0.0,1.0,79,0.00,,SKC,0.00,VWS V14.01,2013-04-01 16:10:00,
2013-04-01 11:14:00,74.1,67.2,30.01,NE,55,0.0,0.0,79,0.00,,SKC,0.00,VWS V14.01,2013-04-01 16:14:00,
2013-04-01 11:19:00,74.7,67.0,30.01,NE,55,0.0,1.0,77,0.00,,SKC,0.00,VWS V14.01,2013-04-01 16:19:00,
2013-04-01 11:20:00,74.3,67.0,30.01,NE,55,0.0,0.0,78,0.00,,SKC,0.00,VWS V14.01,2013-04-01 16:20:00,
2013-04-01 11:24:00,75.0,66.9,30.01,NE,55,0.0,5.0,76,0.00,,SKC,0.00,VWS V14.01,2013-04-01 16:24:00,
2013-04-01 11:29:00,75.4,67.3,30.01,NE,55,0.0,0.0,76,0.00,,SKC,0.00,VWS V14.01,2013-04-01 16:29:00,
2013-04-01 11:30:00,75.2,67.1,30.01,NE,55,0.0,5.0,76,0.00,,SKC,0.00,VWS V14.01,2013-04-01 16:30:00,
2013-04-01 11:34:00,75.8,67.3,30.01,NE,55,0.0,0.0,75,0.00,,SKC,0.00,VWS V14.01,2013-04-01 16:34:00,
2013-04-01 11:39:00,76.3,67.4,30.01,NE,55,0.0,0.0,74,0.00,,SKC,0.00,VWS V14.01,2013-04-01 16:39:00,
2013-04-01 11:40:00,76.0,67.1,30.01,NE,55,0.0,0.0,74,0.00,,SKC,0.00,VWS V14.01,2013-04-01 16:40:00,
2013-04-01 11:44:00,76.9,67.6,30.01,NE,55,0.0,0.0,73,0.00,,SKC,0.00,VWS V14.01,2013-04-01 16:44:00,
2013-04-01 11:49:00,77.4,68.1,30.01,NE,55,0.0,0.0,73,0.00,,SKC,0.00,VWS V14.01,2013-04-01 16:49:00,
2013-04-01 11:50:00,77.1,67.4,30.00,NE,55,0.0,1.0,72,0.00,,SKC,0.00,VWS V14.01,2013-04-01 16:50:00,
2013-04-01 11:54:00,77.8,66.8,30.00,NE,55,0.0,0.0,69,0.00,,SKC,0.00,VWS V14.01,2013-04-01 16:54:00,
2013-04-01 11:59:00,78.1,66.7,30.00,NE,55,0.0,0.0,68,0.00,,SKC,0.00,VWS V14.01,2013-04-01 16:59:00,
2013-04-01 12:00:00,78.0,67.0,30.00,NE,55,0.0,1.0,69,0.00,,SKC,0.00,VWS V14.01,2013-04-01 17:00:00,
2013-04-01 12:04:00,78.3,66.4,30.00,NE,55,0.0,1.0,67,0.00,,SKC,0.00,VWS V14.01,2013-04-01 17:04:00,
2013-04-01 12:09:00,78.8,66.9,30.00,NE,55,0.0,1.0,67,0.00,,SKC,0.00,VWS V14.01,2013-04-01 17:09:00,
2013-04-01 12:10:00,78.5,67.1,30.00,NE,55,0.0,1.0,68,0.00,,SKC,0.00,VWS V14.01,2013-04-01 17:10:00,
2013-04-01 12:14:00,79.5,66.7,30.00,NE,55,4.0,7.0,65,0.00,,SKC,0.00,VWS V14.01,2013-04-01 17:14:00,
2013-04-01 12:19:00,79.9,66.7,30.00,NE,55,0.0,1.0,64,0.00,,SKC,0.00,VWS V14.01,2013-04-01 17:19:00,
2013-04-01 12:20:00,79.7,66.9,30.00,NE,55,0.0,7.0,65,0.00,,SKC,0.00,VWS V14.01,2013-04-01 17:20:00,
2013-04-01 12:24:00,80.2,66.9,30.00,NE,55,0.0,3.0,64,0.00,,SKC,0.00,VWS V14.01,2013-04-01 17:24:00,
2013-04-01 12:29:00,80.3,66.1,30.00,NE,55,0.0,0.0,62,0.00,,SKC,0.00,VWS V14.01,2013-04-01 17:29:00,
2013-04-01 12:30:00,80.3,66.1,30.00,NE,55,0.0,3.0,62,0.00,,SKC,0.00,VWS V14.01,2013-04-01 17:30:00,
2013-04-01 12:34:00,80.3,66.1,30.00,NE,55,0.0,1.0,62,0.00,,SKC,0.00,VWS V14.01,2013-04-01 17:34:00,
2013-04-01 12:39:00,80.3,66.1,29.99,NE,55,0.0,7.0,62,0.00,,SKC,0.00,VWS V14.01,2013-04-01 17:39:00,
2013-04-01 12:40:00,80.3,66.1,30.00,NE,55,0.0,6.0,62,0.00,,SKC,0.00,VWS V14.01,2013-04-01 17:40:00,
2013-04-01 12:44:00,80.3,65.6,29.99,NE,55,0.0,7.0,61,0.00,,SKC,0.00,VWS V14.01,2013-04-01 17:44:00,
2013-04-01 12:49:00,80.4,65.7,29.99,NE,55,0.0,2.0,61,0.00,,SKC,0.00,VWS V14.01,2013-04-01 17:49:00,
2013-04-01 12:50:00,80.3,65.2,29.99,NE,55,0.0,7.0,60,0.00,,SKC,0.00,VWS V14.01,2013-04-01 17:50:00,
2013-04-01 12:54:00,80.8,66.1,29.99,NE,55,0.0,2.0,61,0.00,,SKC,0.00,VWS V14.01,2013-04-01 17:54:00,
2013-04-01 12:59:00,81.4,64.7,29.99,NE,55,0.0,5.0,57,0.00,,SKC,0.00,VWS V14.01,2013-04-01 17:59:00,
2013-04-01 13:00:00,81.1,65.4,29.99,NE,55,0.0,2.0,59,0.00,,SKC,0.00,VWS V14.01,2013-04-01 18:00:00,
2013-04-01 13:04:00,81.9,65.7,29.99,NE,55,0.0,5.0,58,0.00,,SKC,0.00,VWS V14.01,2013-04-01 18:04:00,
2013-04-01 13:09:00,82.4,65.7,29.99,NE,55,0.0,1.0,57,0.00,,SKC,0.00,VWS V14.01,2013-04-01 18:09:00,
2013-04-01 13:10:00,82.1,65.9,29.99,NE,55,0.0,5.0,58,0.00,,SKC,0.00,VWS V14.01,2013-04-01 18:10:00,
2013-04-01 13:14:00,82.7,65.9,29.99,NE,55,0.0,4.0,57,0.00,,SKC,0.00,VWS V14.01,2013-04-01 18:14:00,
2013-04-01 13:19:00,83.0,65.7,29.99,NE,55,0.0,2.0,56,0.00,,SKC,0.00,VWS V14.01,2013-04-01 18:19:00,
2013-04-01 13:20:00,82.9,65.6,29.99,NE,55,0.0,4.0,56,0.00,,SKC,0.00,VWS V14.01,2013-04-01 18:20:00,
2013-04-01 13:24:00,83.3,64.9,29.99,NE,56,0.0,8.0,54,0.00,,SKC,0.00,VWS V14.01,2013-04-01 18:24:00,
2013-04-01 13:29:00,83.6,65.7,29.99,ENE,59,0.0,8.0,55,0.00,,SKC,0.00,VWS V14.01,2013-04-01 18:29:00,
2013-04-01 13:30:00,83.4,65.0,29.99,NE,55,0.0,8.0,54,0.00,,SKC,0.00,VWS V14.01,2013-04-01 18:30:00,
2013-04-01 13:34:00,83.4,64.5,29.99,ENE,63,0.0,8.0,53,0.00,,SKC,0.00,VWS V14.01,2013-04-01 18:34:00,
2013-04-01 13:39:00,83.3,66.0,29.98,ENE,63,0.0,1.0,56,0.00,,SKC,0.00,VWS V14.01,2013-04-01 18:39:00,
2013-04-01 13:40:00,83.3,64.9,29.98,ENE,63,0.0,8.0,54,0.00,,SKC,0.00,VWS V14.01,2013-04-01 18:40:00,
2013-04-01 13:44:00,83.3,64.9,29.98,ENE,63,0.0,1.0,54,0.00,,SKC,0.00,VWS V14.01,2013-04-01 18:44:00,
2013-04-01 13:49:00,83.3,65.5,29.98,ENE,63,0.0,1.0,55,0.00,,SKC,0.00,VWS V14.01,2013-04-01 18:49:00,
2013-04-01 13:50:00,83.3,64.9,29.98,ENE,63,0.0,1.0,54,0.00,,SKC,0.00,VWS V14.01,2013-04-01 18:50:00,
2013-04-01 13:54:00,83.3,64.4,29.98,ENE,65,0.0,7.0,53,0.00,,SKC,0.00,VWS V14.01,2013-04-01 18:54:00,
2013-04-01 13:59:00,83.1,65.3,29.98,ENE,65,0.0,0.0,55,0.00,,SKC,0.00,VWS V14.01,2013-04-01 18:59:00,
2013-04-01 14:00:00,83.1,64.2,29.98,ENE,65,0.0,7.0,53,0.00,,SKC,0.00,VWS V14.01,2013-04-01 19:00:00,
2013-04-01 14:04:00,83.1,65.8,29.97,ENE,65,0.0,1.0,56,0.00,,SKC,0.00,VWS V14.01,2013-04-01 19:04:00,
2013-04-01 14:09:00,83.3,64.4,29.97,ENE,65,0.0,4.0,53,0.00,,SKC,0.00,VWS V14.01,2013-04-01 19:09:00,
2013-04-01 14:10:00,83.3,64.9,29.97,ENE,65,4.0,4.0,54,0.00,,SKC,0.00,VWS V14.01,2013-04-01 19:10:00,
2013-04-01 14:14:00,83.1,64.2,29.96,ENE,65,0.0,4.0,53,0.00,,SKC,0.00,VWS V14.01,2013-04-01 19:14:00,
2013-04-01 14:19:00,83.2,64.3,29.96,ENE,65,0.0,0.0,53,0.00,,SKC,0.00,VWS V14.01,2013-04-01 19:19:00,
2013-04-01 14:20:00,83.1,64.8,29.96,ENE,65,0.0,4.0,54,0.00,,SKC,0.00,VWS V14.01,2013-04-01 19:20:00,
2013-04-01 14:24:00,83.4,64.0,29.95,ENE,65,0.0,2.0,52,0.00,,SKC,0.00,VWS V14.01,2013-04-01 19:24:00,
2013-04-01 14:29:00,84.1,64.0,29.95,ENE,65,0.0,5.0,51,0.00,,SKC,0.00,VWS V14.01,2013-04-01 19:29:00,
2013-04-01 14:30:00,83.6,64.7,29.95,ENE,65,0.0,2.0,53,0.00,,SKC,0.00,VWS V14.01,2013-04-01 19:30:00,
2013-04-01 14:34:00,84.6,63.9,29.94,ENE,65,0.0,5.0,50,0.00,,SKC,0.00,VWS V14.01,2013-04-01 19:34:00,
2013-04-01 14:39:00,84.9,64.2,29.94,ENE,65,0.0,0.0,50,0.00,,SKC,0.00,VWS V14.01,2013-04-01 19:39:00,
2013-04-01 14:40:00,84.8,64.1,29.94,ENE,65,0.0,5.0,50,0.00,,SKC,0.00,VWS V14.01,2013-04-01 19:40:00,
2013-04-01 14:44:00,85.2,64.5,29.94,ENE,65,0.0,1.0,50,0.00,,SKC,0.00,VWS V14.01,2013-04-01 19:44:00,
2013-04-01 14:49:00,85.5,64.8,29.94,ENE,65,0.0,1.0,50,0.00,,SKC,0.00,VWS V14.01,2013-04-01 19:49:00,
2013-04-01 14:50:00,85.3,65.1,29.94,ENE,65,0.0,4.0,51,0.00,,SKC,0.00,VWS V14.01,2013-04-01 19:50:00,
2013-04-01 14:54:00,85.8,65.0,29.93,ENE,65,0.0,2.0,50,0.00,,SKC,0.00,VWS V14.01,2013-04-01 19:54:00,
2013-04-01 14:59:00,86.0,64.6,29.93,ENE,76,1.0,9.0,49,0.00,,SKC,0.00,VWS V14.01,2013-04-01 19:59:00,
2013-04-01 15:00:00,85.9,64.0,29.93,ENE,65,0.0,2.0,48,0.00,,SKC,0.00,VWS V14.01,2013-04-01 20:00:00,
2013-04-01 15:04:00,86.0,64.0,29.93,East,82,0.0,9.0,48,0.00,,SKC,0.00,VWS V14.01,2013-04-01 20:04:00,
2013-04-01 15:09:00,85.7,63.8,29.93,East,86,5.0,10.0,48,0.00,,SKC,0.00,VWS V14.01,2013-04-01 20:09:00,
2013-04-01 15:10:00,85.8,63.9,29.93,East,82,0.0,9.0,48,0.00,,SKC,0.00,VWS V14.01,2013-04-01 20:10:00,
2013-04-01 15:14:00,85.2,63.3,29.93,East,90,3.0,10.0,48,0.00,,SKC,0.00,VWS V14.01,2013-04-01 20:14:00,
2013-04-01 15:19:00,84.8,63.0,29.92,East,90,1.0,6.0,48,0.00,,SKC,0.00,VWS V14.01,2013-04-01 20:19:00,
2013-04-01 15:20:00,85.1,63.2,29.93,East,90,0.0,10.0,48,0.00,,SKC,0.00,VWS V14.01,2013-04-01 20:20:00,
2013-04-01 15:24:00,84.7,63.5,29.92,East,90,3.0,6.0,49,0.00,,SKC,0.00,VWS V14.01,2013-04-01 20:24:00,
2013-04-01 15:29:00,84.6,63.3,29.92,East,90,0.0,1.0,49,0.00,,SKC,0.00,VWS V14.01,2013-04-01 20:29:00,
2013-04-01 15:30:00,84.7,63.4,29.92,East,90,0.0,6.0,49,0.00,,SKC,0.00,VWS V14.01,2013-04-01 20:30:00,
2013-04-01 15:34:00,84.8,64.1,29.92,East,90,0.0,3.0,50,0.00,,SKC,0.00,VWS V14.01,2013-04-01 20:34:00,
2013-04-01 15:39:00,85.4,64.1,29.91,East,90,0.0,0.0,49,0.00,,SKC,0.00,VWS V14.01,2013-04-01 20:39:00,
2013-04-01 15:40:00,85.0,63.7,29.92,East,90,0.0,3.0,49,0.00,,SKC,0.00,VWS V14.01,2013-04-01 20:40:00,
2013-04-01 15:44:00,86.0,64.0,29.91,ESE,104,1.0,8.0,48,0.00,,SKC,0.00,VWS V14.01,2013-04-01 20:44:00,
2013-04-01 15:49:00,86.2,63.6,29.91,ESE,104,0.0,0.0,47,0.00,,SKC,0.00,VWS V14.01,2013-04-01 20:49:00,
2013-04-01 15:50:00,86.1,63.5,29.91,ESE,104,0.0,8.0,47,0.00,,SKC,0.00,VWS V14.01,2013-04-01 20:50:00,
2013-04-01 15:54:00,86.1,62.9,29.91,ESE,104,0.0,0.0,46,0.00,,SKC,0.00,VWS V14.01,2013-04-01 20:54:00,
2013-04-01 15:59:00,86.4,63.8,29.91,ESE,103,0.0,3.0,47,0.00,,SKC,0.00,VWS V14.01,2013-04-01 20:59:00,
2013-04-01 16:00:00,86.2,64.2,29.91,ESE,104,0.0,1.0,48,0.00,,SKC,0.00,VWS V14.01,2013-04-01 21:00:00,
2013-04-01 16:04:00,87.0,63.7,29.91,ESE,103,0.0,3.0,46,0.00,,SKC,0.00,VWS V14.01,2013-04-01 21:04:00,
2013-04-01 16:09:00,87.1,62.6,29.91,ESE,104,0.0,4.0,44,0.00,,SKC,0.00,VWS V14.01,2013-04-01 21:09:00,
2013-04-01 16:10:00,87.2,62.7,29.91,ESE,104,4.0,4.0,44,0.00,,SKC,0.00,VWS V14.01,2013-04-01 21:10:00,
2013-04-01 16:14:00,86.9,63.0,29.90,ESE,104,1.0,5.0,45,0.00,,SKC,0.00,VWS V14.01,2013-04-01 21:14:00,
2013-04-01 16:19:00,87.0,62.5,29.90,ESE,105,0.0,7.0,44,0.00,,SKC,0.00,VWS V14.01,2013-04-01 21:19:00,
2013-04-01 16:20:00,86.9,63.0,29.90,ESE,104,0.0,5.0,45,0.00,,SKC,0.00,VWS V14.01,2013-04-01 21:20:00,
2013-04-01 16:24:00,87.3,62.1,29.89,ESE,103,0.0,7.0,43,0.00,,SKC,0.00,VWS V14.01,2013-04-01 21:24:00,
2013-04-01 16:29:00,87.4,62.2,29.89,ESE,104,0.0,5.0,43,0.00,,SKC,0.00,VWS V14.01,2013-04-01 21:29:00,
2013-04-01 16:30:00,87.4,62.2,29.89,ESE,103,1.0,7.0,43,0.00,,SKC,0.00,VWS V14.01,2013-04-01 21:30:00,
2013-04-01 16:34:00,86.9,61.7,29.89,ESE,103,0.0,5.0,43,0.00,,SKC,0.00,VWS V14.01,2013-04-01 21:34:00,
2013-04-01 16:39:00,86.4,62.6,29.89,ESE,104,0.0,1.0,45,0.00,,SKC,0.00,VWS V14.01,2013-04-01 21:39:00,
2013-04-01 16:40:00,86.7,61.5,29.89,ESE,104,0.0,5.0,43,0.00,,SKC,0.00,VWS V14.01,2013-04-01 21:40:00,
2013-04-01 16:44:00,86.4,62.6,29.88,ESE,103,0.0,5.0,45,0.00,,SKC,0.00,VWS V14.01,2013-04-01 21:44:00,
2013-04-01 16:49:00,86.6,62.8,29.88,ESE,103,2.0,2.0,45,0.00,,SKC,0.00,VWS V14.01,2013-04-01 21:49:00,
2013-04-01 16:50:00,86.5,62.7,29.88,ESE,103,0.0,5.0,45,0.00,,SKC,0.00,VWS V14.01,2013-04-01 21:50:00,
2013-04-01 16:54:00,86.8,62.3,29.88,ESE,103,0.0,4.0,44,0.00,,SKC,0.00,VWS V14.01,2013-04-01 21:54:00,
2013-04-01 16:59:00,86.9,62.4,29.88,ESE,104,0.0,1.0,44,0.00,,SKC,0.00,VWS V14.01,2013-04-01 21:59:00,
2013-04-01 17:00:00,86.9,62.4,29.88,ESE,103,0.0,4.0,44,0.00,,SKC,0.00,VWS V14.01,2013-04-01 22:00:00,
2013-04-01 17:04:00,86.9,62.4,29.87,ESE,106,0.0,7.0,44,0.00,,SKC,0.00,VWS V14.01,2013-04-01 22:04:00,
2013-04-01 17:09:00,86.9,61.7,29.87,ESE,107,0.0,5.0,43,0.00,,SKC,0.00,VWS V14.01,2013-04-01 22:09:00,
2013-04-01 17:10:00,86.9,61.7,29.87,ESE,107,1.0,8.0,43,0.00,,SKC,0.00,VWS V14.01,2013-04-01 22:10:00,
2013-04-01 17:14:00,87.0,61.8,29.87,ESE,107,0.0,5.0,43,0.00,,SKC,0.00,VWS V14.01,2013-04-01 22:14:00,
2013-04-01 17:19:00,87.1,61.9,29.86,ESE,107,0.0,0.0,43,0.00,,SKC,0.00,VWS V14.01,2013-04-01 22:19:00,
2013-04-01 17:20:00,87.0,61.8,29.87,ESE,107,0.0,5.0,43,0.00,,SKC,0.00,VWS V14.01,2013-04-01 22:20:00,
2013-04-01 17:24:00,87.0,61.2,29.86,ESE,109,0.0,8.0,42,0.00,,SKC,0.00,VWS V14.01,2013-04-01 22:24:00,
2013-04-01 17:29:00,87.2,62.0,29.86,ESE,109,2.0,4.0,43,0.00,,SKC,0.00,VWS V14.01,2013-04-01 22:29:00,
2013-04-01 17:30:00,87.0,61.8,29.86,ESE,109,0.0,8.0,43,0.00,,SKC,0.00,VWS V14.01,2013-04-01 22:30:00,
2013-04-01 17:34:00,87.4,62.2,29.86,ESE,110,0.0,8.0,43,0.00,,SKC,0.00,VWS V14.01,2013-04-01 22:34:00,
2013-04-01 17:39:00,87.6,62.4,29.86,ESE,110,0.0,3.0,43,0.00,,SKC,0.00,VWS V14.01,2013-04-01 22:39:00,
2013-04-01 17:40:00,87.4,62.2,29.86,ESE,110,0.0,8.0,43,0.00,,SKC,0.00,VWS V14.01,2013-04-01 22:40:00,
2013-04-01 17:44:00,87.6,61.7,29.86,ESE,112,2.0,9.0,42,0.00,,SKC,0.00,VWS V14.01,2013-04-01 22:44:00,
2013-04-01 17:49:00,87.2,61.3,29.86,ESE,112,4.0,4.0,42,0.00,,SKC,0.00,VWS V14.01,2013-04-01 22:49:00,
2013-04-01 17:50:00,87.5,61.6,29.86,ESE,112,2.0,9.0,42,0.00,,SKC,0.00,VWS V14.01,2013-04-01 22:50:00,
2013-04-01 17:54:00,86.6,61.5,29.86,ESE,112,0.0,8.0,43,0.00,,SKC,0.00,VWS V14.01,2013-04-01 22:54:00,
2013-04-01 17:59:00,86.1,61.0,29.86,ESE,112,0.0,9.0,43,0.00,,SKC,0.00,VWS V14.01,2013-04-01 22:59:00,
2013-04-01 18:00:00,86.5,60.7,29.86,ESE,112,4.0,8.0,42,0.00,,SKC,0.00,VWS V14.01,2013-04-01 23:00:00,
2013-04-01 18:04:00,85.6,61.2,29.86,ESE,112,0.0,9.0,44,0.00,,SKC,0.00,VWS V14.01,2013-04-01 23:04:00,
2013-04-01 18:09:00,85.1,60.8,29.85,ESE,112,0.0,3.0,44,0.00,,SKC,0.00,VWS V14.01,2013-04-01 23:09:00,
2013-04-01 18:10:00,85.3,60.9,29.86,ESE,112,0.0,9.0,44,0.00,,SKC,0.00,VWS V14.01,2013-04-01 23:10:00,
2013-04-01 18:14:00,84.7,61.7,29.85,ESE,112,0.0,5.0,46,0.00,,SKC,0.00,VWS V14.01,2013-04-01 23:14:00,
2013-04-01 18:19:00,84.5,61.5,29.85,ESE,113,3.0,10.0,46,0.00,,SKC,0.00,VWS V14.01,2013-04-01 23:19:00,
2013-04-01 18:20:00,84.6,61.6,29.85,ESE,113,9.0,9.0,46,0.00,,SKC,0.00,VWS V14.01,2013-04-01 23:20:00,
2013-04-01 18:24:00,84.3,61.3,29.85,ESE,113,0.0,10.0,46,0.00,,SKC,0.00,VWS V14.01,2013-04-01 23:24:00,
2013-04-01 18:29:00,84.2,61.2,29.85,ESE,118,0.0,0.0,46,0.00,,SKC,0.00,VWS V14.01,2013-04-01 23:29:00,
2013-04-01 18:30:00,84.2,61.2,29.85,ESE,113,0.0,10.0,46,0.00,,SKC,0.00,VWS V14.01,2013-04-01 23:30:00,
2013-04-01 18:34:00,84.0,61.6,29.85,ESE,118,0.0,1.0,47,0.00,,SKC,0.00,VWS V14.01,2013-04-01 23:34:00,
2013-04-01 18:39:00,83.9,61.5,29.85,ESE,118,0.0,0.0,47,0.00,,SKC,0.00,VWS V14.01,2013-04-01 23:39:00,
2013-04-01 18:40:00,84.0,61.6,29.85,ESE,118,0.0,1.0,47,0.00,,SKC,0.00,VWS V14.01,2013-04-01 23:40:00,
2013-04-01 18:44:00,83.8,60.8,29.85,ESE,118,0.0,5.0,46,0.00,,SKC,0.00,VWS V14.01,2013-04-01 23:44:00,
2013-04-01 18:49:00,83.6,61.3,29.85,ESE,118,0.0,5.0,47,0.00,,SKC,0.00,VWS V14.01,2013-04-01 23:49:00,
2013-04-01 18:50:00,83.7,61.3,29.85,ESE,118,1.0,7.0,47,0.00,,SKC,0.00,VWS V14.01,2013-04-01 23:50:00,
2013-04-01 18:54:00,83.4,61.1,29.85,ESE,119,0.0,7.0,47,0.00,,SKC,0.00,VWS V14.01,2013-04-01 23:54:00,
2013-04-01 18:59:00,83.2,61.5,29.85,ESE,119,0.0,8.0,48,0.00,,SKC,0.00,VWS V14.01,2013-04-01 23:59:00,
2013-04-01 19:00:00,83.3,61.6,29.85,ESE,119,0.0,7.0,48,0.00,,SKC,0.00,VWS V14.01,2013-04-02 00:00:00,
2013-04-01 19:04:00,83.0,61.3,29.86,ESE,119,0.0,8.0,48,0.00,,SKC,0.00,VWS V14.01,2013-04-02 00:04:00,
2013-04-01 19:09:00,82.7,61.6,29.86,ESE,120,0.0,5.0,49,0.00,,SKC,0.00,VWS V14.01,2013-04-02 00:09:00,
2013-04-01 19:10:00,82.8,61.1,29.86,ESE,119,0.0,8.0,48,0.00,,SKC,0.00,VWS V14.01,2013-04-02 00:10:00,
2013-04-01 19:14:00,82.5,61.4,29.86,ESE,120,0.0,7.0,49,0.00,,SKC,0.00,VWS V14.01,2013-04-02 00:14:00,
2013-04-01 19:19:00,82.2,61.7,29.86,ESE,119,5.0,5.0,50,0.00,,SKC,0.00,VWS V14.01,2013-04-02 00:19:00,
2013-04-01 19:20:00,82.4,61.3,29.86,ESE,120,0.0,7.0,49,0.00,,SKC,0.00,VWS V14.01,2013-04-02 00:20:00,
2013-04-01 19:24:00,82.0,61.5,29.86,ESE,119,0.0,7.0,50,0.00,,SKC,0.00,VWS V14.01,2013-04-02 00:24:00,
2013-04-01 19:29:00,81.7,61.8,29.86,ESE,119,0.0,3.0,51,0.00,,SKC,0.00,VWS V14.01,2013-04-02 00:29:00,
2013-04-01 19:30:00,81.8,61.4,29.86,ESE,119,0.0,7.0,50,0.00,,SKC,0.00,VWS V14.01,2013-04-02 00:30:00,
2013-04-01 19:34:00,81.4,61.5,29.86,ESE,119,0.0,3.0,51,0.00,,SKC,0.00,VWS V14.01,2013-04-02 00:34:00,
2013-04-01 19:39:00,81.1,61.8,29.86,ESE,122,0.0,4.0,52,0.00,,SKC,0.00,VWS V14.01,2013-04-02 00:39:00,
2013-04-01 19:40:00,81.2,61.9,29.86,ESE,122,4.0,10.0,52,0.00,,SKC,0.00,VWS V14.01,2013-04-02 00:40:00,
2013-04-01 19:44:00,80.8,62.1,29.86,SE,125,5.0,9.0,53,0.00,,SKC,0.00,VWS V14.01,2013-04-02 00:44:00,
2013-04-01 19:49:00,80.5,62.3,29.86,SE,125,0.0,0.0,54,0.00,,SKC,0.00,VWS V14.01,2013-04-02 00:49:00,
2013-04-01 19:50:00,80.6,61.9,29.86,SE,125,0.0,9.0,53,0.00,,SKC,0.00,VWS V14.01,2013-04-02 00:50:00,
2013-04-01 19:54:00,80.1,62.0,29.86,SE,125,2.0,5.0,54,0.00,,SKC,0.00,VWS V14.01,2013-04-02 00:54:00,
2013-04-01 19:59:00,79.8,62.2,29.86,SE,125,0.0,4.0,55,0.00,,SKC,0.00,VWS V14.01,2013-04-02 00:59:00,
2013-04-01 20:00:00,80.0,61.9,29.86,SE,125,0.0,5.0,54,0.00,,SKC,0.00,VWS V14.01,2013-04-02 01:00:00,
2013-04-01 20:04:00,79.5,61.9,29.86,SE,125,0.0,4.0,55,0.00,,SKC,0.00,VWS V14.01,2013-04-02 01:04:00,
2013-04-01 20:09:00,79.2,62.2,29.87,SE,125,0.0,1.0,56,0.00,,SKC,0.00,VWS V14.01,2013-04-02 01:09:00,
2013-04-01 20:10:00,79.4,61.8,29.86,SE,125,0.0,4.0,55,0.00,,SKC,0.00,VWS V14.01,2013-04-02 01:10:00,
2013-04-01 20:14:00,79.0,62.0,29.87,SE,125,0.0,3.0,56,0.00,,SKC,0.00,VWS V14.01,2013-04-02 01:14:00,
2013-04-01 20:19:00,78.8,61.8,29.87,SE,125,0.0,0.0,56,0.00,,SKC,0.00,VWS V14.01,2013-04-02 01:19:00,
2013-04-01 20:20:00,78.9,61.9,29.87,SE,125,0.0,3.0,56,0.00,,SKC,0.00,VWS V14.01,2013-04-02 01:20:00,
2013-04-01 20:24:00,78.5,62.0,29.87,SE,125,0.0,5.0,57,0.00,,SKC,0.00,VWS V14.01,2013-04-02 01:24:00,
2013-04-01 20:29:00,78.4,61.9,29.88,SE,128,8.0,10.0,57,0.00,,SKC,0.00,VWS V14.01,2013-04-02 01:29:00,
2013-04-01 20:30:00,78.5,62.0,29.88,SE,125,0.0,5.0,57,0.00,,SKC,0.00,VWS V14.01,2013-04-02 01:30:00,
2013-04-01 20:34:00,78.4,63.4,29.88,SE,143,7.0,12.0,60,0.00,,SKC,0.00,VWS V14.01,2013-04-02 01:34:00,
2013-04-01 20:39:00,78.0,63.9,29.88,SSE,155,2.0,10.0,62,0.00,,SKC,0.00,VWS V14.01,2013-04-02 01:39:00,
2013-04-01 20:40:00,78.3,63.8,29.88,SSE,151,4.0,12.0,61,0.00,,SKC,0.00,VWS V14.01,2013-04-02 01:40:00,
2013-04-01 20:44:00,77.5,64.4,29.88,SE,129,1.0,10.0,64,0.00,,SKC,0.00,VWS V14.01,2013-04-02 01:44:00,
2013-04-01 20:49:00,76.8,64.6,29.89,SE,132,1.0,11.0,66,0.00,,SKC,0.00,VWS V14.01,2013-04-02 01:49:00,
2013-04-01 20:50:00,77.2,64.5,29.88,ESE,123,1.0,10.0,65,0.00,,SKC,0.00,VWS V14.01,2013-04-02 01:50:00,
2013-04-01 20:54:00,76.3,64.6,29.88,SE,130,0.0,11.0,67,0.00,,SKC,0.00,VWS V14.01,2013-04-02 01:54:00,
2013-04-01 20:59:00,75.8,64.5,29.89,SE,138,0.0,6.0,68,0.00,,SKC,0.00,VWS V14.01,2013-04-02 01:59:00,
2013-04-01 21:00:00,76.0,64.7,29.89,SE,142,0.0,11.0,68,0.00,,SKC,0.00,VWS V14.01,2013-04-02 02:00:00,
2013-04-01 21:04:00,75.3,64.4,29.89,SSE,150,0.0,10.0,69,0.00,,SKC,0.00,VWS V14.01,2013-04-02 02:04:00,
2013-04-01 21:09:00,74.8,64.0,29.90,South,169,6.0,8.0,69,0.00,,SKC,0.00,VWS V14.01,2013-04-02 02:09:00,
2013-04-01 21:10:00,75.1,64.2,29.90,SSE,151,0.0,10.0,69,0.00,,SKC,0.00,VWS V14.01,2013-04-02 02:10:00,
2013-04-01 21:14:00,74.4,64.0,29.90,SSE,168,2.0,10.0,70,0.00,,SKC,0.00,VWS V14.01,2013-04-02 02:14:00,
2013-04-01 21:19:00,74.0,64.0,29.91,SSE,168,2.0,9.0,71,0.00,,SKC,0.00,VWS V14.01,2013-04-02 02:19:00,
2013-04-01 21:20:00,74.2,64.2,29.90,SSE,162,4.0,10.0,71,0.00,,SKC,0.00,VWS V14.01,2013-04-02 02:20:00,
2013-04-01 21:24:00,73.7,64.1,29.91,SSE,167,0.0,9.0,72,0.00,,SKC,0.00,VWS V14.01,2013-04-02 02:24:00,
2013-04-01 21:29:00,73.3,64.1,29.91,SSE,167,0.0,4.0,73,0.00,,SKC,0.00,VWS V14.01,2013-04-02 02:29:00,
2013-04-01 21:30:00,73.5,63.9,29.91,SSE,167,0.0,9.0,72,0.00,,SKC,0.00,VWS V14.01,2013-04-02 02:30:00,
2013-04-01 21:34:00,73.0,63.8,29.92,SSE,167,0.0,4.0,73,0.00,,SKC,0.00,VWS V14.01,2013-04-02 02:34:00,
2013-04-01 21:39:00,72.7,63.9,29.92,SSE,165,0.0,0.0,74,0.00,,SKC,0.00,VWS V14.01,2013-04-02 02:39:00,
2013-04-01 21:40:00,72.9,64.1,29.92,SSE,165,0.0,6.0,74,0.00,,SKC,0.00,VWS V14.01,2013-04-02 02:40:00,
2013-04-01 21:44:00,72.3,63.9,29.92,SSE,165,4.0,6.0,75,0.00,,SKC,0.00,VWS V14.01,2013-04-02 02:44:00,
2013-04-01 21:49:00,71.9,63.5,29.93,SSE,165,0.0,10.0,75,0.00,,SKC,0.00,VWS V14.01,2013-04-02 02:49:00,
2013-04-01 21:50:00,72.1,63.8,29.93,SSE,163,0.0,8.0,75,0.00,,SKC,0.00,VWS V14.01,2013-04-02 02:50:00,
2013-04-01 21:54:00,71.6,63.6,29.93,SSE,151,0.0,11.0,76,0.00,,SKC,0.00,VWS V14.01,2013-04-02 02:54:00,
2013-04-01 21:59:00,71.4,63.5,29.93,SSE,155,0.0,9.0,76,0.00,,SKC,0.00,VWS V14.01,2013-04-02 02:59:00,
2013-04-01 22:00:00,71.5,63.5,29.93,SSE,151,0.0,11.0,76,0.00,,SKC,0.00,VWS V14.01,2013-04-02 03:00:00,
2013-04-01 22:04:00,71.2,63.6,29.93,SSE,155,0.0,9.0,77,0.00,,SKC,0.00,VWS V14.01,2013-04-02 03:04:00,
2013-04-01 22:09:00,70.9,63.3,29.94,SSE,155,0.0,1.0,77,0.00,,SKC,0.00,VWS V14.01,2013-04-02 03:09:00,
2013-04-01 22:10:00,71.1,63.5,29.93,SSE,155,0.0,9.0,77,0.00,,SKC,0.00,VWS V14.01,2013-04-02 03:10:00,
2013-04-01 22:14:00,70.7,63.5,29.93,SSE,148,0.0,8.0,78,0.00,,SKC,0.00,VWS V14.01,2013-04-02 03:14:00,
2013-04-01 22:19:00,70.4,63.2,29.93,SSE,147,0.0,5.0,78,0.00,,SKC,0.00,VWS V14.01,2013-04-02 03:19:00,
2013-04-01 22:20:00,70.6,63.4,29.93,SSE,148,0.0,8.0,78,0.00,,SKC,0.00,VWS V14.01,2013-04-02 03:20:00,
2013-04-01 22:24:00,70.1,63.3,29.93,SSE,148,0.0,5.0,79,0.00,,SKC,0.00,VWS V14.01,2013-04-02 03:24:00,
2013-04-01 22:29:00,69.9,63.5,29.94,SSE,155,7.0,10.0,80,0.00,,SKC,0.00,VWS V14.01,2013-04-02 03:29:00,
2013-04-01 22:30:00,70.0,63.2,29.94,SSE,153,0.0,11.0,79,0.00,,SKC,0.00,VWS V14.01,2013-04-02 03:30:00,
2013-04-01 22:34:00,69.7,63.3,29.94,SSE,156,0.0,10.0,80,0.00,,SKC,0.00,VWS V14.01,2013-04-02 03:34:00,
2013-04-01 22:39:00,69.6,63.2,29.94,SSE,156,0.0,0.0,80,0.00,,SKC,0.00,VWS V14.01,2013-04-02 03:39:00,
2013-04-01 22:40:00,69.7,63.3,29.94,SSE,156,0.0,10.0,80,0.00,,SKC,0.00,VWS V14.01,2013-04-02 03:40:00,
2013-04-01 22:44:00,69.4,63.3,29.95,SSE,156,0.0,2.0,81,0.00,,SKC,0.00,VWS V14.01,2013-04-02 03:44:00,
2013-04-01 22:49:00,69.4,63.3,29.95,SSE,156,0.0,0.0,81,0.00,,SKC,0.00,VWS V14.01,2013-04-02 03:49:00,
2013-04-01 22:50:00,69.4,63.3,29.95,SSE,156,0.0,2.0,81,0.00,,SKC,0.00,VWS V14.01,2013-04-02 03:50:00,
2013-04-01 22:54:00,69.3,63.6,29.95,SSE,157,5.0,6.0,82,0.00,,SKC,0.00,VWS V14.01,2013-04-02 03:54:00,
2013-04-01 22:59:00,69.3,63.6,29.95,SSE,157,0.0,7.0,82,0.00,,SKC,0.00,VWS V14.01,2013-04-02 03:59:00,
2013-04-01 23:00:00,69.3,63.6,29.95,SSE,157,0.0,7.0,82,0.00,,SKC,0.00,VWS V14.01,2013-04-02 04:00:00,
2013-04-01 23:05:00,69.3,63.6,29.96,SSE,154,1.0,7.0,82,0.00,,SKC,0.00,VWS V14.01,2013-04-02 04:05:00,
2013-04-01 23:10:00,69.3,63.9,29.96,SSE,154,0.0,0.0,83,0.00,,SKC,0.00,VWS V14.01,2013-04-02 04:10:00,
2013-04-01 23:15:00,69.2,63.8,29.96,SSE,154,0.0,0.0,83,0.00,,SKC,0.00,VWS V14.01,2013-04-02 04:15:00,
2013-04-01 23:20:00,69.2,63.8,29.96,SSE,154,0.0,6.0,83,0.00,,SKC,0.00,VWS V14.01,2013-04-02 04:20:00,
2013-04-01 23:25:00,69.1,63.7,29.96,SSE,151,0.0,6.0,83,0.00,,SKC,0.00,VWS V14.01,2013-04-02 04:25:00,
2013-04-01 23:30:00,69.1,64.1,29.96,SSE,150,0.0,4.0,84,0.00,,SKC,0.00,VWS V14.01,2013-04-02 04:30:00,
2013-04-01 23:35:00,69.0,64.0,29.96,SSE,150,0.0,4.0,84,0.00,,SKC,0.00,VWS V14.01,2013-04-02 04:35:00,
2013-04-01 23:40:00,68.9,63.9,29.97,SSE,151,0.0,7.0,84,0.00,,SKC,0.00,VWS V14.01,2013-04-02 04:40:00,
2013-04-01 23:45:00,68.9,63.9,29.96,SSE,150,0.0,7.0,84,0.00,,SKC,0.00,VWS V14.01,2013-04-02 04:45:00,
2013-04-01 23:50:00,68.8,63.8,29.96,SSE,150,0.0,0.0,84,0.00,,SKC,0.00,VWS V14.01,2013-04-02 04:50:00,
2013-04-01 23:55:00,68.8,63.8,29.96,SSE,151,0.0,5.0,84,0.00,,SKC,0.00,VWS V14.01,2013-04-02 04:55:00,